Terminal Aerodrome Forecast
Issued by NWS

Home | Current Version | Previous Version | Text Only | Print | Product List | Glossary On
Versions: 1 2 3 4 5 6 7 8 9 10 11 12 13 14 15 16 17 18 19 20 21 22 23 24 25 26
891
FTUS46 KSGX 231720
TAFSAN
TAF
KSAN 231720Z 2318/2424 22009KT P6SM SCT200
     FM240200 19006KT P6SM SCT008
     FM240500 17009KT P6SM OVC008
     FM240900 18009KT P6SM OVC012
     FM241600 21011KT P6SM SCT015 SCT200=

USA.gov is the U.S. government's official web portal to all federal, state and local government web resources and services.